Time;durP1;ratioP1;P1;durP2;ratioP2;P2;SDS_P1;SDS_P2;PMS_P1;PMS_P2;Temp;Humidity;BMP_temperature;BMP_pressure;BME280_temperature;BME280_humidity;BME280_pressure;Samples;Min_cycle;Max_cycle;Signal;HPM_P1;HPM_P2
2022/08/29 00:00:36;;;;;;;;;;;16.50;99.90;;;;;;5056108;28;19963;-69
2022/08/29 00:03:02;;;;;;;;;;;16.50;99.90;;;;;;5055737;28;19931;-69
2022/08/29 00:05:29;;;;;;;;;;;16.50;99.90;;;;;;5055364;28;19927;-69
2022/08/29 00:07:55;;;;;;;;;;;16.50;99.90;;;;;;5055017;28;19924;-69
2022/08/29 00:10:21;;;;;;;;;;;16.50;99.90;;;;;;5055497;28;20007;-69
2022/08/29 00:12:46;;;;;;;;;;;16.50;99.90;;;;;;5055683;28;19991;-69
2022/08/29 00:15:13;;;;;;;;;;;16.50;99.90;;;;;;5055753;28;20437;-69
2022/08/29 00:17:39;;;;;;;;;;;16.50;99.90;;;;;;5073042;28;19920;-69
2022/08/29 00:20:06;;;;;;;;;;;16.50;99.80;;;;;;5054912;28;19946;-69
2022/08/29 00:22:31;;;;;;;;;;;16.50;99.60;;;;;;5054694;28;19927;-69
2022/08/29 00:25:01;;;;;;;;;;;16.50;99.90;;;;;;5055439;28;19920;-67
2022/08/29 00:27:27;;;;;;;;;;;16.50;99.90;;;;;;5055310;28;19960;-68
2022/08/29 00:29:52;;;;;;;;;;;16.50;99.90;;;;;;5055384;28;20353;-67
2022/08/29 00:32:18;;;;;;;;;;;16.50;99.90;;;;;;5038447;28;19924;-68
2022/08/29 00:34:43;;;;;;;;;;;16.40;99.90;;;;;;5055166;28;19968;-68
2022/08/29 00:37:09;;;;;;;;;;;16.40;99.90;;;;;;5055394;28;19967;-67
2022/08/29 00:39:34;;;;;;;;;;;16.50;99.90;;;;;;5055121;28;20483;-68
2022/08/29 00:42:00;;;;;;;;;;;16.40;99.90;;;;;;5055069;28;19962;-67
2022/08/29 00:44:25;;;;;;;;;;;16.50;99.90;;;;;;5038522;28;19977;-68
2022/08/29 00:46:53;;;;;;;;;;;16.50;99.90;;;;;;5054828;28;19921;-67
2022/08/29 00:49:31;;;;;;;;;;;16.40;99.90;;;;;;5054924;28;19925;-68
2022/08/29 00:51:59;;;;;;;;;;;16.40;99.90;;;;;;5054896;28;20019;-68
2022/08/29 00:54:25;;;;;;;;;;;16.30;99.90;;;;;;5055114;28;20015;-68
2022/08/29 00:56:52;;;;;;;;;;;16.30;99.90;;;;;;5054699;28;19920;-68
2022/08/29 00:59:19;;;;;;;;;;;16.30;99.90;;;;;;5072869;28;19973;-67
2022/08/29 01:01:45;;;;;;;;;;;16.30;99.90;;;;;;5054915;28;19967;-68
2022/08/29 01:04:11;;;;;;;;;;;16.30;99.90;;;;;;5054898;28;19925;-68
2022/08/29 01:06:38;;;;;;;;;;;16.30;99.90;;;;;;5054529;28;19927;-66
2022/08/29 01:09:04;;;;;;;;;;;16.30;99.90;;;;;;5054534;28;20610;-68
2022/08/29 01:14:15;;;;;;;;;;;16.30;99.90;;;;;;5054578;28;19920;-68
2022/08/29 01:16:40;;;;;;;;;;;16.30;99.90;;;;;;5054495;28;20019;-67
2022/08/29 01:19:14;;;;;;;;;;;16.30;99.90;;;;;;5053638;28;20347;-67
2022/08/29 01:21:48;;;;;;;;;;;16.30;99.90;;;;;;5054362;28;19928;-68
2022/08/29 01:24:32;;;;;;;;;;;16.30;99.90;;;;;;5072290;28;20273;-67
2022/08/29 01:26:57;;;;;;;;;;;16.30;99.90;;;;;;5072315;28;20015;-68
2022/08/29 01:29:23;;;;;;;;;;;16.30;99.90;;;;;;5054616;28;20008;-68
2022/08/29 01:31:49;;;;;;;;;;;16.30;99.90;;;;;;5054176;28;19970;-68
2022/08/29 01:34:15;;;;;;;;;;;16.30;99.90;;;;;;5072066;28;19966;-68
2022/08/29 01:36:49;;;;;;;;;;;16.30;99.90;;;;;;5054152;28;19938;-67
2022/08/29 01:39:15;;;;;;;;;;;16.30;99.90;;;;;;5037250;28;19928;-68
2022/08/29 01:41:42;;;;;;;;;;;16.30;99.90;;;;;;5054091;28;19964;-68
2022/08/29 01:44:16;;;;;;;;;;;16.30;99.90;;;;;;5054026;28;19994;-68
2022/08/29 01:46:41;;;;;;;;;;;16.30;99.90;;;;;;5054017;28;19970;-68
2022/08/29 01:49:07;;;;;;;;;;;16.30;99.90;;;;;;5054160;28;19933;-68
2022/08/29 01:51:34;;;;;;;;;;;16.30;99.90;;;;;;5053864;28;19935;-67
2022/08/29 01:53:59;;;;;;;;;;;16.30;99.90;;;;;;5054190;28;19921;-68
2022/08/29 01:56:28;;;;;;;;;;;16.20;99.90;;;;;;5053915;28;19921;-68
2022/08/29 01:58:55;;;;;;;;;;;16.20;99.90;;;;;;5053953;28;19966;-67
2022/08/29 02:01:24;;;;;;;;;;;16.20;99.90;;;;;;5053863;28;19920;-68
2022/08/29 02:03:50;;;;;;;;;;;16.20;99.90;;;;;;5053961;28;19947;-68
2022/08/29 02:06:16;;;;;;;;;;;16.20;99.90;;;;;;5053482;28;19928;-69
2022/08/29 02:08:42;;;;;;;;;;;16.20;99.90;;;;;;5052963;28;19963;-69
2022/08/29 02:11:09;;;;;;;;;;;16.20;99.90;;;;;;5072008;28;19958;-69
2022/08/29 02:13:38;;;;;;;;;;;16.20;99.90;;;;;;5071645;28;19932;-69
2022/08/29 02:16:04;;;;;;;;;;;16.30;99.90;;;;;;5037097;28;19921;-69
2022/08/29 02:18:30;;;;;;;;;;;16.20;99.90;;;;;;5053546;28;19927;-69
2022/08/29 02:20:56;;;;;;;;;;;16.20;99.90;;;;;;5053607;28;19928;-69
2022/08/29 02:23:22;;;;;;;;;;;16.20;99.90;;;;;;5053952;28;19920;-69
2022/08/29 02:25:48;;;;;;;;;;;16.20;99.90;;;;;;5053963;28;19928;-69
2022/08/29 02:28:15;;;;;;;;;;;16.20;99.90;;;;;;5071516;28;19931;-69
2022/08/29 02:30:42;;;;;;;;;;;16.20;99.90;;;;;;5057276;28;19963;-69
2022/08/29 02:33:08;;;;;;;;;;;16.20;99.90;;;;;;5057311;28;19940;-69
2022/08/29 02:35:34;;;;;;;;;;;16.20;99.90;;;;;;5057510;28;19920;-69
2022/08/29 02:38:00;;;;;;;;;;;16.20;99.90;;;;;;5057847;28;19920;-69
2022/08/29 02:40:26;;;;;;;;;;;16.20;99.90;;;;;;5057328;28;19920;-69
2022/08/29 02:42:52;;;;;;;;;;;16.20;99.90;;;;;;5057614;28;20033;-69
2022/08/29 02:45:18;;;;;;;;;;;16.20;99.90;;;;;;5057238;28;19920;-69
2022/08/29 02:47:44;;;;;;;;;;;16.10;99.90;;;;;;5075263;28;19921;-69
2022/08/29 02:50:10;;;;;;;;;;;16.10;99.90;;;;;;5057144;28;20019;-69
2022/08/29 02:52:37;;;;;;;;;;;16.10;99.90;;;;;;5057145;28;19928;-69
2022/08/29 02:55:03;;;;;;;;;;;16.10;99.90;;;;;;5056886;28;20358;-69
2022/08/29 02:57:28;;;;;;;;;;;16.20;99.90;;;;;;5057318;28;19924;-69
2022/08/29 02:59:54;;;;;;;;;;;16.10;99.90;;;;;;5057062;28;19920;-68
2022/08/29 03:02:19;;;;;;;;;;;16.20;99.90;;;;;;5057168;28;19973;-69
2022/08/29 03:04:45;;;;;;;;;;;16.10;99.90;;;;;;5056892;28;20347;-69
2022/08/29 03:07:10;;;;;;;;;;;16.10;99.90;;;;;;5056826;28;20381;-69
2022/08/29 03:09:36;;;;;;;;;;;16.10;99.90;;;;;;5074553;28;20386;-69
2022/08/29 03:12:01;;;;;;;;;;;16.10;99.90;;;;;;5057175;28;19936;-69
2022/08/29 03:14:27;;;;;;;;;;;16.10;99.90;;;;;;5056709;28;19924;-69
2022/08/29 03:16:52;;;;;;;;;;;16.10;99.90;;;;;;5056777;28;19932;-69
2022/08/29 03:19:18;;;;;;;;;;;16.10;99.90;;;;;;5056551;28;19920;-69
2022/08/29 03:21:44;;;;;;;;;;;16.10;99.90;;;;;;5056870;28;20061;-69
2022/08/29 03:24:09;;;;;;;;;;;16.10;99.90;;;;;;5056514;28;19928;-69
2022/08/29 03:26:35;;;;;;;;;;;16.10;99.90;;;;;;5056560;28;19920;-69
2022/08/29 03:29:02;;;;;;;;;;;16.10;99.90;;;;;;5056519;28;20409;-69
2022/08/29 03:31:27;;;;;;;;;;;16.10;99.90;;;;;;5056244;28;19920;-69
2022/08/29 03:33:52;;;;;;;;;;;16.10;99.90;;;;;;5056339;28;19925;-69
2022/08/29 03:36:18;;;;;;;;;;;16.10;99.90;;;;;;5074532;28;19927;-69
2022/08/29 03:38:45;;;;;;;;;;;16.10;99.90;;;;;;5056639;28;19924;-69
2022/08/29 03:41:11;;;;;;;;;;;16.10;99.90;;;;;;5038853;28;19964;-69
2022/08/29 03:43:37;;;;;;;;;;;16.20;99.90;;;;;;5056046;28;19920;-69
2022/08/29 03:46:02;;;;;;;;;;;16.20;99.90;;;;;;5073967;28;19920;-69
2022/08/29 03:48:28;;;;;;;;;;;16.20;99.90;;;;;;5056319;28;19935;-69
2022/08/29 03:50:53;;;;;;;;;;;16.20;99.90;;;;;;5056053;28;19925;-69
2022/08/29 03:53:19;;;;;;;;;;;16.20;99.90;;;;;;5056141;28;19928;-69
2022/08/29 03:55:45;;;;;;;;;;;16.20;99.90;;;;;;5055897;28;20293;-69
2022/08/29 03:58:10;;;;;;;;;;;16.30;99.90;;;;;;5056125;28;19927;-69
2022/08/29 04:00:36;;;;;;;;;;;16.20;99.90;;;;;;5056063;28;19924;-69
2022/08/29 04:03:01;;;;;;;;;;;16.30;99.90;;;;;;5055753;28;20399;-69
2022/08/29 04:05:27;;;;;;;;;;;16.30;99.90;;;;;;5073824;28;19924;-69
2022/08/29 04:07:57;;;;;;;;;;;16.20;99.90;;;;;;5055693;28;19931;-69
2022/08/29 04:10:24;;;;;;;;;;;16.20;99.90;;;;;;5055580;28;19987;-70
2022/08/29 04:12:50;;;;;;;;;;;16.20;99.90;;;;;;5056005;28;20269;-69
2022/08/29 04:15:16;;;;;;;;;;;16.10;99.90;;;;;;5054964;28;19924;-69
2022/08/29 04:17:42;;;;;;;;;;;16.10;99.90;;;;;;5055558;28;19927;-69
2022/08/29 04:20:08;;;;;;;;;;;16.00;99.90;;;;;;5055664;28;19931;-69
2022/08/29 04:22:35;;;;;;;;;;;16.00;99.90;;;;;;5055813;28;20031;-69
2022/08/29 04:25:00;;;;;;;;;;;16.00;99.90;;;;;;5038752;28;19928;-69
2022/08/29 04:27:26;;;;;;;;;;;15.90;99.90;;;;;;5055346;28;20520;-69
2022/08/29 04:29:51;;;;;;;;;;;15.90;99.90;;;;;;5054402;28;19924;-69
2022/08/29 04:32:17;;;;;;;;;;;15.90;99.90;;;;;;5072246;28;20360;-68
2022/08/29 04:34:42;;;;;;;;;;;15.90;99.90;;;;;;5054679;28;20038;-69
2022/08/29 04:37:08;;;;;;;;;;;15.90;99.90;;;;;;5054155;28;19955;-69
2022/08/29 04:39:33;;;;;;;;;;;15.80;99.90;;;;;;5054761;28;19920;-69
2022/08/29 04:41:59;;;;;;;;;;;15.80;99.90;;;;;;5071744;28;19920;-69
2022/08/29 04:44:24;;;;;;;;;;;15.70;99.90;;;;;;5053508;28;19928;-69
2022/08/29 04:46:50;;;;;;;;;;;15.70;99.90;;;;;;5053694;28;20552;-69
2022/08/29 04:49:16;;;;;;;;;;;15.70;99.90;;;;;;5037275;28;19932;-69
2022/08/29 04:51:41;;;;;;;;;;;15.70;99.90;;;;;;5053475;28;20460;-69
2022/08/29 04:54:07;;;;;;;;;;;15.70;99.90;;;;;;5053117;28;19921;-69
2022/08/29 04:56:32;;;;;;;;;;;15.70;99.90;;;;;;5054070;28;20287;-69
2022/08/29 04:58:58;;;;;;;;;;;15.70;99.90;;;;;;5053727;28;19921;-69
2022/08/29 05:01:24;;;;;;;;;;;15.80;99.90;;;;;;5037236;28;19971;-69
2022/08/29 05:03:51;;;;;;;;;;;15.80;99.90;;;;;;5053827;28;19928;-69
2022/08/29 05:06:17;;;;;;;;;;;15.90;99.90;;;;;;5053964;28;19931;-69
2022/08/29 05:08:44;;;;;;;;;;;15.90;99.90;;;;;;5053743;28;19928;-70
2022/08/29 05:11:15;;;;;;;;;;;15.90;99.90;;;;;;5053755;28;19950;-69
2022/08/29 05:13:41;;;;;;;;;;;15.90;99.90;;;;;;5054507;28;19920;-69
2022/08/29 05:16:08;;;;;;;;;;;15.90;99.90;;;;;;5054601;28;19967;-70
2022/08/29 05:18:33;;;;;;;;;;;15.90;99.90;;;;;;5054459;28;19920;-70
2022/08/29 05:20:59;;;;;;;;;;;16.00;99.90;;;;;;5054586;28;19920;-69
2022/08/29 05:23:24;;;;;;;;;;;16.00;99.90;;;;;;5054201;28;19927;-69
2022/08/29 05:25:54;;;;;;;;;;;16.10;99.90;;;;;;5038004;28;19948;-69
2022/08/29 05:28:19;;;;;;;;;;;16.10;99.90;;;;;;5054157;28;20323;-67
2022/08/29 05:30:45;;;;;;;;;;;16.20;99.90;;;;;;5072283;28;19925;-69
2022/08/29 05:33:10;;;;;;;;;;;16.20;99.90;;;;;;5054140;28;20011;-68
2022/08/29 05:35:37;;;;;;;;;;;16.20;99.90;;;;;;5054066;28;19959;-67
2022/08/29 05:38:02;;;;;;;;;;;16.30;99.90;;;;;;5053970;28;19927;-68
2022/08/29 05:40:28;;;;;;;;;;;16.30;99.90;;;;;;5054050;28;20007;-67
2022/08/29 05:42:54;;;;;;;;;;;16.30;99.90;;;;;;5053746;28;20435;-67
2022/08/29 05:45:19;;;;;;;;;;;16.40;99.90;;;;;;5054002;28;19928;-67
2022/08/29 05:47:44;;;;;;;;;;;16.40;99.90;;;;;;5072084;28;19924;-68
2022/08/29 05:50:10;;;;;;;;;;;16.50;99.90;;;;;;5053816;28;20304;-67
2022/08/29 05:52:36;;;;;;;;;;;16.50;99.90;;;;;;5053778;28;19966;-68
2022/08/29 05:55:02;;;;;;;;;;;16.60;99.90;;;;;;5053918;28;19925;-69
2022/08/29 05:57:28;;;;;;;;;;;16.70;99.90;;;;;;5053700;28;19924;-68
2022/08/29 05:59:53;;;;;;;;;;;16.80;99.90;;;;;;5071863;28;19943;-68
2022/08/29 06:02:20;;;;;;;;;;;16.90;99.90;;;;;;5053332;28;19921;-68
2022/08/29 06:04:45;;;;;;;;;;;17.00;99.90;;;;;;5070487;28;19964;-68
2022/08/29 06:07:11;;;;;;;;;;;17.10;99.90;;;;;;5071052;28;20020;-68
2022/08/29 06:09:37;;;;;;;;;;;17.20;99.90;;;;;;5052885;28;19931;-68
2022/08/29 06:12:03;;;;;;;;;;;17.40;99.90;;;;;;5071500;28;20463;-68
2022/08/29 06:14:29;;;;;;;;;;;17.40;99.90;;;;;;5053661;28;19920;-69
2022/08/29 06:16:54;;;;;;;;;;;17.50;99.90;;;;;;5071678;28;19931;-68
2022/08/29 06:19:20;;;;;;;;;;;17.50;99.90;;;;;;5053793;28;19921;-68
2022/08/29 06:21:46;;;;;;;;;;;17.60;99.90;;;;;;5053353;28;19967;-69
2022/08/29 06:24:12;;;;;;;;;;;17.70;99.90;;;;;;5053306;28;19921;-68
2022/08/29 06:26:37;;;;;;;;;;;17.80;99.90;;;;;;5036976;28;19924;-68
2022/08/29 06:29:04;;;;;;;;;;;18.00;99.90;;;;;;5053513;28;19925;-68
2022/08/29 06:31:29;;;;;;;;;;;18.30;99.90;;;;;;5053457;28;19978;-68
2022/08/29 06:33:57;;;;;;;;;;;18.60;99.90;;;;;;5053301;28;19924;-68
2022/08/29 06:36:26;;;;;;;;;;;18.90;99.90;;;;;;5053286;28;20410;-68
2022/08/29 06:38:54;;;;;;;;;;;19.20;99.90;;;;;;5053400;28;19927;-69
2022/08/29 06:41:19;;;;;;;;;;;19.70;99.90;;;;;;5053533;28;19921;-69
2022/08/29 06:43:45;;;;;;;;;;;20.60;99.90;;;;;;5053258;28;19928;-69
2022/08/29 06:46:18;;;;;;;;;;;21.10;99.90;;;;;;5036991;28;20278;-68
2022/08/29 06:48:44;;;;;;;;;;;21.40;99.90;;;;;;5053510;28;19944;-68
2022/08/29 06:51:09;;;;;;;;;;;21.60;99.90;;;;;;5053352;28;19925;-68
2022/08/29 06:53:35;;;;;;;;;;;21.60;99.90;;;;;;5071331;28;19928;-69
2022/08/29 06:56:07;;;;;;;;;;;21.30;99.90;;;;;;5053625;28;19930;-68
2022/08/29 06:58:33;;;;;;;;;;;20.40;99.90;;;;;;5053442;28;20062;-68
2022/08/29 07:01:04;;;;;;;;;;;20.30;99.90;;;;;;5053305;28;19970;-67
2022/08/29 07:03:29;;;;;;;;;;;20.20;99.90;;;;;;5052819;28;20025;-66
2022/08/29 07:05:55;;;;;;;;;;;20.00;99.90;;;;;;5036261;28;19979;-67
2022/08/29 07:08:22;;;;;;;;;;;19.90;99.90;;;;;;5052684;28;20296;-67
2022/08/29 07:10:48;;;;;;;;;;;20.00;99.90;;;;;;5036033;28;20003;-67
2022/08/29 07:13:14;;;;;;;;;;;19.90;99.90;;;;;;5052874;28;20066;-67
2022/08/29 07:15:40;;;;;;;;;;;19.90;99.90;;;;;;5053014;28;19920;-67
2022/08/29 07:18:05;;;;;;;;;;;19.90;99.90;;;;;;5056335;28;19936;-67
2022/08/29 07:20:31;;;;;;;;;;;19.90;99.90;;;;;;5056256;28;19982;-67
2022/08/29 07:22:56;;;;;;;;;;;19.90;99.90;;;;;;5056353;22;20539;-67
2022/08/29 07:25:22;;;;;;;;;;;20.00;99.90;;;;;;5014633;28;19925;-67
2022/08/29 07:27:47;;;;;;;;;;;20.30;99.90;;;;;;5015620;28;19925;-67
2022/08/29 07:30:15;;;;;;;;;;;20.70;99.90;;;;;;4999841;28;19921;-67
2022/08/29 07:32:43;;;;;;;;;;;21.10;99.90;;;;;;5015989;28;20013;-67
2022/08/29 07:35:10;;;;;;;;;;;20.80;99.90;;;;;;5016263;28;19948;-67
2022/08/29 07:37:35;;;;;;;;;;;21.10;99.90;;;;;;5016562;28;19975;-67
2022/08/29 07:40:01;;;;;;;;;;;21.10;99.90;;;;;;5016130;28;19949;-67
2022/08/29 07:42:26;;;;;;;;;;;20.90;99.90;;;;;;5016825;28;19925;-67
2022/08/29 07:44:52;;;;;;;;;;;20.90;99.90;;;;;;5016492;28;19928;-67
2022/08/29 07:47:17;;;;;;;;;;;20.80;99.90;;;;;;5016735;28;20554;-67
2022/08/29 07:49:43;;;;;;;;;;;21.00;99.90;;;;;;5016494;28;19921;-67
2022/08/29 07:52:09;;;;;;;;;;;20.90;99.90;;;;;;5033703;28;19921;-67
2022/08/29 07:54:34;;;;;;;;;;;21.10;99.90;;;;;;5016102;28;19934;-67
2022/08/29 07:57:00;;;;;;;;;;;21.20;99.90;;;;;;4999319;28;20377;-68
2022/08/29 07:59:25;;;;;;;;;;;21.20;99.90;;;;;;5033914;28;19925;-69
2022/08/29 08:01:51;;;;;;;;;;;20.80;99.90;;;;;;5015953;28;20393;-68
2022/08/29 08:04:17;;;;;;;;;;;21.10;99.90;;;;;;5015841;28;20080;-68
2022/08/29 08:06:42;;;;;;;;;;;21.10;99.90;;;;;;5015634;28;20477;-68
2022/08/29 08:09:08;;;;;;;;;;;21.30;99.90;;;;;;5015544;28;19925;-68
2022/08/29 08:11:34;;;;;;;;;;;21.60;99.90;;;;;;5015273;28;19925;-69
2022/08/29 08:14:00;;;;;;;;;;;21.70;99.90;;;;;;5033329;28;19932;-68
2022/08/29 08:16:26;;;;;;;;;;;21.80;99.90;;;;;;4999564;28;19928;-69
2022/08/29 08:18:52;;;;;;;;;;;21.40;99.90;;;;;;5015697;28;19925;-68
2022/08/29 08:21:18;;;;;;;;;;;21.60;99.90;;;;;;5033166;28;19929;-68
2022/08/29 08:23:44;;;;;;;;;;;21.60;99.90;;;;;;5015426;28;19921;-68
2022/08/29 08:26:10;;;;;;;;;;;21.70;99.90;;;;;;5015327;28;20354;-69
2022/08/29 08:28:36;;;;;;;;;;;21.70;99.90;;;;;;5032809;28;19932;-69
2022/08/29 08:31:03;;;;;;;;;;;21.80;99.90;;;;;;4998307;28;19925;-68
2022/08/29 08:33:29;;;;;;;;;;;21.80;99.90;;;;;;5033312;28;20575;-69
2022/08/29 08:35:56;;;;;;;;;;;21.90;99.90;;;;;;5015065;28;20023;-69
2022/08/29 08:38:21;;;;;;;;;;;21.90;99.10;;;;;;5033116;28;19995;-69
2022/08/29 08:40:52;;;;;;;;;;;21.90;99.90;;;;;;5014969;28;20020;-69
2022/08/29 08:43:22;;;;;;;;;;;21.80;99.90;;;;;;5015347;28;20426;-69
2022/08/29 08:45:48;;;;;;;;;;;21.80;98.40;;;;;;5015364;28;19929;-68
2022/08/29 08:48:17;;;;;;;;;;;22.00;98.40;;;;;;5015185;28;19960;-69
2022/08/29 08:50:53;;;;;;;;;;;22.00;99.90;;;;;;5015229;28;20337;-69
2022/08/29 08:53:31;;;;;;;;;;;21.90;97.50;;;;;;5015453;28;19932;-69
2022/08/29 08:56:00;;;;;;;;;;;21.80;98.90;;;;;;5032879;28;19956;-68
2022/08/29 08:58:25;;;;;;;;;;;21.80;99.90;;;;;;4998588;28;20367;-69
2022/08/29 09:00:57;;;;;;;;;;;21.40;99.90;;;;;;5014942;28;19921;-69
2022/08/29 09:03:29;;;;;;;;;;;21.40;99.90;;;;;;5014691;28;19921;-68
2022/08/29 09:05:55;;;;;;;;;;;21.40;98.60;;;;;;5013975;28;19925;-69
2022/08/29 09:08:24;;;;;;;;;;;21.20;99.90;;;;;;5014327;28;19952;-68
2022/08/29 09:11:00;;;;;;;;;;;21.20;99.90;;;;;;5013934;28;20019;-68
2022/08/29 09:13:37;;;;;;;;;;;21.20;99.90;;;;;;5031871;28;19982;-68
2022/08/29 09:16:11;;;;;;;;;;;21.20;99.90;;;;;;5014332;28;20290;-69
2022/08/29 09:18:38;;;;;;;;;;;21.00;99.90;;;;;;5014287;28;19937;-68
2022/08/29 09:21:09;;;;;;;;;;;21.20;99.90;;;;;;5032055;28;19928;-68
2022/08/29 09:23:44;;;;;;;;;;;21.20;99.90;;;;;;5014329;28;19925;-68
2022/08/29 09:26:10;;;;;;;;;;;21.30;99.90;;;;;;5014885;28;19995;-68
2022/08/29 09:28:35;;;;;;;;;;;21.50;99.90;;;;;;5014587;28;19921;-69
2022/08/29 09:31:16;;;;;;;;;;;21.60;99.90;;;;;;5014285;28;19928;-69
2022/08/29 09:33:48;;;;;;;;;;;21.70;99.90;;;;;;5032108;28;19925;-69
2022/08/29 09:36:31;;;;;;;;;;;21.90;99.30;;;;;;4998125;28;19992;-69
2022/08/29 09:39:15;;;;;;;;;;;21.90;99.90;;;;;;5031392;28;20379;-69
2022/08/29 09:41:41;;;;;;;;;;;21.90;97.30;;;;;;4975143;28;19936;-68
2022/08/29 09:44:11;;;;;;;;;;;21.80;99.90;;;;;;4975439;28;19926;-69
2022/08/29 09:46:36;;;;;;;;;;;21.60;99.90;;;;;;4974888;28;19929;-69
2022/08/29 09:49:02;;;;;;;;;;;21.50;99.90;;;;;;4975062;28;19925;-69
2022/08/29 09:51:29;;;;;;;;;;;21.50;99.90;;;;;;4974976;28;19926;-69
2022/08/29 09:54:13;;;;;;;;;;;21.30;99.90;;;;;;4992424;28;19933;-68
2022/08/29 09:56:47;;;;;;;;;;;21.30;99.90;;;;;;4974872;28;20287;-68
2022/08/29 09:59:19;;;;;;;;;;;21.20;99.90;;;;;;4974527;28;19928;-68
2022/08/29 10:01:45;;;;;;;;;;;20.90;99.90;;;;;;4974430;28;20395;-69
2022/08/29 10:04:10;;;;;;;;;;;20.70;99.90;;;;;;4974517;28;19928;-69
2022/08/29 10:06:38;;;;;;;;;;;20.70;99.90;;;;;;4974448;28;19965;-69
2022/08/29 10:09:06;;;;;;;;;;;20.70;99.90;;;;;;4974634;28;20292;-68
2022/08/29 10:11:42;;;;;;;;;;;20.80;99.90;;;;;;4991883;28;19926;-68
2022/08/29 10:14:14;;;;;;;;;;;20.70;99.90;;;;;;4974953;28;19996;-68
2022/08/29 10:16:44;;;;;;;;;;;20.90;99.90;;;;;;4992283;28;20318;-69
2022/08/29 10:19:30;;;;;;;;;;;20.70;99.90;;;;;;4974680;28;19957;-68
2022/08/29 10:22:09;;;;;;;;;;;20.40;99.90;;;;;;4989595;28;19921;-68
2022/08/29 10:24:55;;;;;;;;;;;20.60;99.90;;;;;;4974037;28;19965;-68
2022/08/29 10:27:23;;;;;;;;;;;20.90;99.90;;;;;;4960398;28;20280;-69
2022/08/29 10:29:55;;;;;;;;;;;21.10;99.90;;;;;;4974638;28;20323;-69
2022/08/29 10:32:31;;;;;;;;;;;21.10;99.90;;;;;;4974544;28;20007;-69
2022/08/29 10:34:57;;;;;;;;;;;21.20;99.90;;;;;;4974276;28;19969;-68
2022/08/29 10:37:39;;;;;;;;;;;21.20;99.90;;;;;;4974340;28;20019;-68
2022/08/29 10:40:08;;;;;;;;;;;21.30;99.90;;;;;;4973907;28;19921;-68
2022/08/29 10:42:35;;;;;;;;;;;21.30;99.90;;;;;;4991138;28;20053;-68
2022/08/29 10:45:12;;;;;;;;;;;21.20;99.90;;;;;;4973663;28;20446;-68
2022/08/29 10:47:46;;;;;;;;;;;21.20;99.90;;;;;;4973490;28;19925;-68
2022/08/29 10:50:15;;;;;;;;;;;21.10;99.90;;;;;;4975071;28;20379;-68
2022/08/29 10:52:52;;;;;;;;;;;21.30;99.90;;;;;;4995276;28;19926;-68
2022/08/29 10:55:26;;;;;;;;;;;21.40;99.90;;;;;;4977457;28;19937;-68
2022/08/29 10:58:00;;;;;;;;;;;21.20;99.90;;;;;;4978163;28;19922;-68
2022/08/29 11:00:46;;;;;;;;;;;21.40;99.90;;;;;;4977828;28;19925;-68
2022/08/29 11:03:16;;;;;;;;;;;21.60;99.10;;;;;;4994313;28;19951;-68
2022/08/29 11:05:44;;;;;;;;;;;21.50;99.90;;;;;;4977974;28;20013;-68
2022/08/29 11:08:13;;;;;;;;;;;21.30;99.90;;;;;;4961775;28;19932;-68
2022/08/29 11:10:43;;;;;;;;;;;21.40;99.90;;;;;;4977858;28;20292;-69
2022/08/29 11:13:24;;;;;;;;;;;21.50;99.90;;;;;;4995317;28;20028;-68
2022/08/29 11:15:51;;;;;;;;;;;21.60;99.90;;;;;;4995435;28;19930;-68
2022/08/29 11:18:32;;;;;;;;;;;21.50;99.90;;;;;;4977829;28;19928;-69
2022/08/29 11:20:59;;;;;;;;;;;21.70;99.90;;;;;;4977824;28;19925;-68
2022/08/29 11:23:38;;;;;;;;;;;21.60;99.90;;;;;;4977595;28;20567;-68
2022/08/29 11:26:09;;;;;;;;;;;21.80;99.90;;;;;;4977776;28;19933;-69
2022/08/29 11:28:40;;;;;;;;;;;22.00;99.90;;;;;;4995168;28;20009;-68
2022/08/29 11:31:14;;;;;;;;;;;21.80;99.90;;;;;;4977538;28;20359;-68
2022/08/29 11:34:15;;;;;;;;;;;22.10;99.90;;;;;;4995163;28;19980;-68
2022/08/29 11:36:40;;;;;;;;;;;22.20;99.60;;;;;;4995102;28;19921;-68
2022/08/29 11:39:18;;;;;;;;;;;22.30;99.70;;;;;;4977596;28;19928;-69
2022/08/29 11:41:46;;;;;;;;;;;22.30;99.00;;;;;;4961817;28;19988;-68
2022/08/29 11:44:23;;;;;;;;;;;22.20;99.40;;;;;;4977305;28;19928;-68
2022/08/29 11:46:49;;;;;;;;;;;22.10;99.40;;;;;;4977428;28;19972;-69
2022/08/29 11:49:20;;;;;;;;;;;22.10;99.60;;;;;;4977649;28;19922;-68
2022/08/29 11:51:49;;;;;;;;;;;22.30;97.90;;;;;;4977298;28;19926;-69
2022/08/29 11:54:24;;;;;;;;;;;22.40;99.20;;;;;;4977418;28;20577;-68
2022/08/29 11:56:59;;;;;;;;;;;22.40;98.60;;;;;;5012118;28;20375;-69
2022/08/29 11:59:43;;;;;;;;;;;22.40;98.70;;;;;;4999774;28;19921;-69
2022/08/29 12:02:09;;;;;;;;;;;22.50;98.70;;;;;;5015488;28;19936;-69
2022/08/29 12:04:52;;;;;;;;;;;22.90;97.20;;;;;;5015959;28;20012;-69
2022/08/29 12:07:19;;;;;;;;;;;22.90;97.60;;;;;;5015916;28;19928;-69
2022/08/29 12:09:50;;;;;;;;;;;23.10;97.20;;;;;;5015852;28;20385;-69
2022/08/29 12:12:17;;;;;;;;;;;23.20;97.10;;;;;;5015862;28;19928;-69
2022/08/29 12:14:44;;;;;;;;;;;23.10;96.40;;;;;;5015798;28;19929;-69
2022/08/29 12:17:16;;;;;;;;;;;23.30;96.00;;;;;;5015934;28;20018;-68
2022/08/29 12:19:56;;;;;;;;;;;23.50;94.50;;;;;;5015748;28;19925;-69
2022/08/29 12:22:41;;;;;;;;;;;23.30;96.90;;;;;;5015742;28;19924;-69
2022/08/29 12:25:22;;;;;;;;;;;23.40;96.70;;;;;;5015875;28;19925;-69
2022/08/29 12:28:02;;;;;;;;;;;23.50;97.70;;;;;;4999202;28;19925;-68
2022/08/29 12:30:29;;;;;;;;;;;23.70;94.60;;;;;;5015262;28;19975;-69
2022/08/29 12:33:10;;;;;;;;;;;23.60;96.20;;;;;;5015625;28;19927;-69
2022/08/29 12:35:39;;;;;;;;;;;23.60;94.70;;;;;;4998875;28;19928;-69
2022/08/29 12:38:25;;;;;;;;;;;23.40;96.40;;;;;;5015444;28;19928;-68
2022/08/29 12:40:50;;;;;;;;;;;22.80;96.80;;;;;;5015165;28;20000;-69
2022/08/29 12:43:36;;;;;;;;;;;23.10;95.10;;;;;;5015274;28;20032;-69
2022/08/29 12:46:07;;;;;;;;;;;22.80;96.50;;;;;;4998614;28;19921;-69
2022/08/29 12:48:37;;;;;;;;;;;23.10;96.60;;;;;;5033104;28;19975;-69
2022/08/29 12:51:03;;;;;;;;;;;23.60;94.60;;;;;;5015291;28;19925;-69
2022/08/29 12:53:32;;;;;;;;;;;24.00;94.70;;;;;;5015100;28;20394;-68
2022/08/29 12:55:58;;;;;;;;;;;24.30;93.60;;;;;;5015111;28;19925;-68
2022/08/29 12:58:30;;;;;;;;;;;24.30;94.30;;;;;;5015060;28;19931;-68
2022/08/29 13:00:55;;;;;;;;;;;24.10;93.80;;;;;;5032949;28;20003;-69
2022/08/29 13:03:21;;;;;;;;;;;23.90;94.30;;;;;;5015127;28;20332;-68
2022/08/29 13:05:47;;;;;;;;;;;23.60;94.80;;;;;;5014850;28;20159;-69
2022/08/29 13:08:14;;;;;;;;;;;23.70;95.40;;;;;;5015269;28;19964;-69
2022/08/29 13:10:41;;;;;;;;;;;23.60;94.90;;;;;;5014656;28;19925;-68
2022/08/29 13:13:09;;;;;;;;;;;23.50;94.10;;;;;;5031863;28;19971;-68
2022/08/29 13:15:35;;;;;;;;;;;23.20;95.20;;;;;;4998127;28;19987;-68
2022/08/29 13:18:00;;;;;;;;;;;23.20;96.00;;;;;;5014685;28;19925;-69
2022/08/29 13:20:42;;;;;;;;;;;23.20;95.20;;;;;;5014458;28;20294;-69
2022/08/29 13:23:10;;;;;;;;;;;22.70;97.00;;;;;;4997254;28;19960;-69
2022/08/29 13:26:02;;;;;;;;;;;22.70;97.30;;;;;;5013416;28;20382;-69
2022/08/29 13:28:43;;;;;;;;;;;22.70;96.00;;;;;;4992015;28;19960;-69
2022/08/29 13:31:09;;;;;;;;;;;22.70;95.70;;;;;;5013950;28;19972;-69
2022/08/29 13:33:34;;;;;;;;;;;22.50;97.50;;;;;;5014166;28;20020;-68
2022/08/29 13:36:00;;;;;;;;;;;22.70;96.80;;;;;;5013552;28;20386;-69
2022/08/29 13:38:26;;;;;;;;;;;22.70;97.70;;;;;;5013728;28;19974;-69
2022/08/29 13:40:53;;;;;;;;;;;22.70;97.60;;;;;;5013619;28;20015;-69
2022/08/29 13:43:28;;;;;;;;;;;22.80;95.80;;;;;;5014262;28;19925;-69
2022/08/29 13:46:14;;;;;;;;;;;22.80;97.20;;;;;;5014391;28;19979;-69
2022/08/29 13:48:40;;;;;;;;;;;22.50;97.30;;;;;;5032367;28;20019;-69
2022/08/29 13:51:06;;;;;;;;;;;22.70;96.60;;;;;;5014280;28;19982;-68
2022/08/29 13:53:31;;;;;;;;;;;22.90;96.30;;;;;;5014509;28;20366;-69
2022/08/29 13:55:58;;;;;;;;;;;22.80;96.80;;;;;;4997791;28;20598;-69
2022/08/29 13:58:25;;;;;;;;;;;22.90;96.10;;;;;;5031985;28;19964;-68
2022/08/29 14:00:51;;;;;;;;;;;22.90;96.80;;;;;;5014101;28;19925;-69
2022/08/29 14:03:18;;;;;;;;;;;23.20;94.90;;;;;;5014256;28;19921;-68
2022/08/29 14:05:43;;;;;;;;;;;23.20;95.30;;;;;;5013949;28;19925;-69
2022/08/29 14:08:10;;;;;;;;;;;23.00;96.70;;;;;;5014112;28;19932;-68
2022/08/29 14:10:36;;;;;;;;;;;23.20;95.20;;;;;;5013925;28;19921;-69
2022/08/29 14:13:02;;;;;;;;;;;22.80;96.80;;;;;;5031876;28;19925;-69
2022/08/29 14:15:27;;;;;;;;;;;23.00;96.50;;;;;;5013883;28;19929;-69
2022/08/29 14:17:53;;;;;;;;;;;22.80;96.30;;;;;;4997638;28;19932;-69
2022/08/29 14:20:18;;;;;;;;;;;22.70;96.70;;;;;;5031609;28;19925;-68
2022/08/29 14:22:44;;;;;;;;;;;22.40;97.40;;;;;;5031686;28;20291;-69
2022/08/29 14:25:10;;;;;;;;;;;22.40;97.80;;;;;;5015277;28;19929;-68